createdAt,value
2022-07-25T00:01:54.359Z,9.90
2022-07-25T00:04:21.916Z,10.40
2022-07-25T00:06:49.377Z,13.40
2022-07-25T00:09:16.521Z,9.67
2022-07-25T00:11:43.682Z,9.90
2022-07-25T00:14:10.774Z,9.37
2022-07-25T00:16:37.834Z,9.60
2022-07-25T00:19:04.840Z,10.27
2022-07-25T00:21:32.640Z,9.83
2022-07-25T00:23:59.605Z,9.50
2022-07-25T00:26:26.516Z,11.03
2022-07-25T00:28:53.567Z,10.70
2022-07-25T00:31:20.659Z,9.60
2022-07-25T00:33:47.721Z,10.40
2022-07-25T00:36:14.633Z,10.43
2022-07-25T00:38:41.693Z,10.33
2022-07-25T00:41:08.677Z,10.90
2022-07-25T00:43:35.680Z,9.50
2022-07-25T00:46:02.788Z,9.97
2022-07-25T00:48:31.205Z,11.73
2022-07-25T00:50:59.243Z,10.27
2022-07-25T00:53:26.657Z,11.00
2022-07-25T00:55:54.885Z,11.17
2022-07-25T00:58:21.895Z,9.83
2022-07-25T01:00:48.963Z,10.20
2022-07-25T01:03:17.003Z,10.17
2022-07-25T01:05:44.305Z,10.00
2022-07-25T01:08:12.362Z,10.10
2022-07-25T01:10:39.887Z,10.87
2022-07-25T01:13:07.470Z,10.87
2022-07-25T01:15:34.817Z,10.27
2022-07-25T01:18:02.046Z,9.90
2022-07-25T01:20:31.842Z,10.70
2022-07-25T01:23:00.314Z,10.17
2022-07-25T01:25:28.694Z,10.63
2022-07-25T01:27:56.290Z,10.90
2022-07-25T01:30:25.752Z,12.10
2022-07-25T01:32:53.581Z,11.13
2022-07-25T01:35:21.114Z,10.63
2022-07-25T01:37:48.321Z,10.10
2022-07-25T01:40:15.506Z,10.63
2022-07-25T01:42:43.864Z,10.70
2022-07-25T01:45:13.598Z,10.87
2022-07-25T01:47:41.223Z,10.77
2022-07-25T01:50:09.939Z,13.43
2022-07-25T01:52:39.710Z,10.60
2022-07-25T01:55:08.018Z,11.47
2022-07-25T01:57:36.154Z,11.40
2022-07-25T02:00:10.884Z,11.23
2022-07-25T02:02:37.827Z,11.77
2022-07-25T02:05:06.997Z,11.30
2022-07-25T02:07:34.183Z,11.90
2022-07-25T02:10:01.142Z,11.37
2022-07-25T02:12:28.326Z,13.77
2022-07-25T02:14:55.311Z,11.30
2022-07-25T02:17:22.243Z,11.10
2022-07-25T02:19:49.366Z,10.67
2022-07-25T02:22:16.302Z,11.90
2022-07-25T02:24:43.565Z,12.20
2022-07-25T02:27:10.555Z,12.50
2022-07-25T02:29:37.604Z,11.70
2022-07-25T02:32:05.391Z,11.13
2022-07-25T02:34:32.351Z,10.77
2022-07-25T02:36:59.232Z,11.00
2022-07-25T02:39:26.127Z,11.33
2022-07-25T02:41:53.104Z,10.70
2022-07-25T02:44:20.027Z,11.87
2022-07-25T02:46:46.983Z,12.17
2022-07-25T02:49:14.131Z,12.23
2022-07-25T02:51:41.148Z,12.37
2022-07-25T02:54:08.024Z,13.30
2022-07-25T02:56:34.993Z,12.77
2022-07-25T02:59:01.947Z,12.60
2022-07-25T03:01:29.105Z,12.50
2022-07-25T03:03:56.327Z,13.20
2022-07-25T03:06:23.347Z,12.30
2022-07-25T03:08:50.304Z,14.23
2022-07-25T03:11:17.600Z,12.60
2022-07-25T03:13:44.513Z,14.20
2022-07-25T03:16:11.483Z,13.73
2022-07-25T03:18:38.507Z,14.17
2022-07-25T03:21:06.065Z,13.60
2022-07-25T03:23:33.482Z,14.87
2022-07-25T03:26:00.340Z,13.57
2022-07-25T03:28:27.287Z,12.80
2022-07-25T03:30:54.528Z,13.00
2022-07-25T03:33:21.629Z,13.53
2022-07-25T03:35:48.676Z,13.40
2022-07-25T03:38:15.640Z,14.67
2022-07-25T03:40:42.900Z,13.77
2022-07-25T03:43:10.196Z,12.63
2022-07-25T03:45:37.234Z,14.20
2022-07-25T03:48:04.844Z,12.27
2022-07-25T03:50:31.802Z,14.17
2022-07-25T03:52:59.069Z,13.70
2022-07-25T03:55:27.153Z,14.13
2022-07-25T03:57:54.053Z,13.60
2022-07-25T04:00:21.285Z,14.30
2022-07-25T04:02:48.251Z,13.87
2022-07-25T04:05:15.256Z,13.77
2022-07-25T04:07:42.132Z,13.50
2022-07-25T04:10:10.207Z,13.00
2022-07-25T04:12:37.420Z,18.13
2022-07-25T04:15:05.335Z,13.03
2022-07-25T04:17:32.184Z,13.90
2022-07-25T04:19:59.746Z,12.20
2022-07-25T04:22:26.920Z,13.80
2022-07-25T04:24:53.801Z,13.20
2022-07-25T04:27:20.714Z,15.07
2022-07-25T04:29:47.720Z,11.70
2022-07-25T04:32:15.029Z,13.13
2022-07-25T04:34:43.582Z,13.27
2022-07-25T04:37:10.617Z,12.37
2022-07-25T04:39:37.704Z,12.10
2022-07-25T04:42:05.065Z,13.57
2022-07-25T04:44:31.937Z,11.80
2022-07-25T04:46:58.888Z,13.67
2022-07-25T04:49:25.850Z,11.77
2022-07-25T04:51:52.777Z,12.17
2022-07-25T04:54:19.750Z,11.47
2022-07-25T04:56:46.657Z,11.37
2022-07-25T04:59:13.601Z,10.83
2022-07-25T05:01:40.500Z,11.40
2022-07-25T05:04:07.778Z,11.53
2022-07-25T05:06:34.958Z,12.07
2022-07-25T05:09:01.962Z,11.30
2022-07-25T05:11:29.003Z,10.77
2022-07-25T05:13:56.394Z,10.60
2022-07-25T05:16:23.334Z,11.70
2022-07-25T05:18:50.278Z,9.83
2022-07-25T05:21:17.202Z,9.30
2022-07-25T05:23:44.164Z,10.07
2022-07-25T05:26:11.066Z,11.43
2022-07-25T05:28:38.051Z,9.17
2022-07-25T05:31:05.168Z,9.43
2022-07-25T05:33:33.450Z,9.70
2022-07-25T05:36:01.142Z,8.97
2022-07-25T05:38:28.050Z,9.03
2022-07-25T05:40:55.018Z,10.57
2022-07-25T05:43:21.994Z,9.30
2022-07-25T05:45:48.953Z,11.90
2022-07-25T05:48:15.888Z,9.30
2022-07-25T05:50:43.006Z,8.10
2022-07-25T05:53:10.053Z,8.60
2022-07-25T05:55:40.705Z,9.10
2022-07-25T05:58:09.381Z,8.23
2022-07-25T06:00:37.558Z,8.27
2022-07-25T06:03:05.191Z,9.30
2022-07-25T06:05:32.476Z,8.43
2022-07-25T06:07:59.473Z,8.20
2022-07-25T06:10:26.376Z,8.47
2022-07-25T06:12:53.302Z,8.57
2022-07-25T06:15:22.990Z,11.07
2022-07-25T06:17:54.539Z,8.67
2022-07-25T06:20:21.852Z,8.70
2022-07-25T06:22:48.842Z,8.00
2022-07-25T06:25:16.050Z,8.40
2022-07-25T06:27:43.199Z,8.80
2022-07-25T06:30:19.992Z,8.27
2022-07-25T06:32:50.836Z,8.87
2022-07-25T06:35:18.895Z,7.87
2022-07-25T06:37:46.400Z,7.53
2022-07-25T06:40:14.406Z,8.57
2022-07-25T06:42:46.331Z,8.83
2022-07-25T06:45:15.368Z,8.17
2022-07-25T06:47:44.453Z,8.20
2022-07-25T06:50:18.438Z,7.37
2022-07-25T06:52:48.842Z,7.70
2022-07-25T06:55:16.572Z,7.83
2022-07-25T06:57:44.063Z,7.73
2022-07-25T07:00:14.159Z,7.97
2022-07-25T07:03:01.193Z,7.30
2022-07-25T07:05:34.163Z,8.20
2022-07-25T07:08:01.864Z,8.17
2022-07-25T07:10:31.001Z,8.30
2022-07-25T07:13:11.767Z,8.47
2022-07-25T07:15:44.798Z,8.80
2022-07-25T07:18:11.720Z,7.70
2022-07-25T07:20:38.919Z,9.00
2022-07-25T07:23:05.897Z,8.20
2022-07-25T07:25:34.218Z,14.60
2022-07-25T07:28:01.318Z,7.83
2022-07-25T07:30:58.320Z,7.63
2022-07-25T07:33:15.352Z,8.03
2022-07-25T07:35:45.204Z,8.23
2022-07-25T07:38:12.205Z,9.07
2022-07-25T07:40:39.164Z,8.87
2022-07-25T07:43:06.327Z,7.60
2022-07-25T07:45:34.124Z,7.40
2022-07-25T07:48:01.189Z,7.83
2022-07-25T07:50:28.800Z,7.70
2022-07-25T07:52:58.442Z,7.40
2022-07-25T07:55:45.458Z,7.40
2022-07-25T07:58:16.610Z,8.33
2022-07-25T08:04:06.007Z,8.07
2022-07-25T08:06:32.952Z,7.53
2022-07-25T08:08:59.942Z,7.90
2022-07-25T08:11:26.935Z,7.63
2022-07-25T08:13:53.957Z,6.80
2022-07-25T08:16:21.019Z,7.80
2022-07-25T08:18:47.956Z,6.63
2022-07-25T08:21:14.856Z,8.20
2022-07-25T08:23:41.981Z,8.40
2022-07-25T08:26:08.999Z,8.23
2022-07-25T08:28:36.021Z,8.00
2022-07-25T08:31:03.082Z,7.43
2022-07-25T08:33:30.105Z,7.60
2022-07-25T08:35:58.694Z,7.37
2022-07-25T08:38:29.266Z,6.90
2022-07-25T08:40:58.210Z,7.80
2022-07-25T08:43:25.148Z,9.40
2022-07-25T08:45:55.278Z,7.80
2022-07-25T08:48:26.926Z,7.93
2022-07-25T08:50:58.674Z,9.50
2022-07-25T08:53:35.147Z,8.07
2022-07-25T08:56:13.746Z,8.20
2022-07-25T08:58:43.801Z,8.67
2022-07-25T09:01:14.440Z,8.00
2022-07-25T09:03:43.930Z,7.50
2022-07-25T09:06:23.057Z,7.53
2022-07-25T09:09:00.438Z,7.90
2022-07-25T09:11:34.433Z,7.40
2022-07-25T09:14:14.894Z,7.70
2022-07-25T09:16:45.303Z,8.90
2022-07-25T09:19:22.199Z,7.97
2022-07-25T09:22:21.835Z,7.80
2022-07-25T09:24:49.202Z,8.13
2022-07-25T09:27:18.112Z,8.77
2022-07-25T09:29:45.636Z,7.97
2022-07-25T09:32:22.927Z,8.90
2022-07-25T09:34:51.196Z,8.80
2022-07-25T09:37:27.051Z,8.17
2022-07-25T09:39:54.207Z,7.83
2022-07-25T09:42:39.368Z,8.23
2022-07-25T09:45:14.916Z,8.53
2022-07-25T09:48:04.915Z,9.13
2022-07-25T09:50:33.508Z,8.30
2022-07-25T09:53:02.481Z,8.53
2022-07-25T09:55:31.241Z,8.20
2022-07-25T09:57:58.625Z,9.10
2022-07-25T10:00:29.288Z,8.40
2022-07-25T10:03:05.379Z,8.57
2022-07-25T10:05:56.576Z,8.67
2022-07-25T10:08:26.244Z,8.80
2022-07-25T10:10:53.282Z,9.50
2022-07-25T10:13:39.085Z,10.07
2022-07-25T10:16:27.636Z,9.10
2022-07-25T10:18:58.887Z,8.60
2022-07-25T10:21:29.704Z,8.70
2022-07-25T10:24:06.718Z,8.40
2022-07-25T10:26:52.011Z,9.10
2022-07-25T10:29:18.914Z,9.20
2022-07-25T10:31:50.384Z,9.17
2022-07-25T10:34:33.537Z,8.20
2022-07-25T10:37:28.979Z,8.63
2022-07-25T10:39:56.480Z,7.50
2022-07-25T10:42:25.200Z,9.30
2022-07-25T10:44:59.357Z,10.73
2022-07-25T10:47:28.263Z,9.13
2022-07-25T10:53:00.583Z,8.27
2022-07-25T10:55:29.544Z,8.73
2022-07-25T10:58:21.627Z,9.50
2022-07-25T11:00:50.962Z,10.97
2022-07-25T11:03:18.720Z,8.70
2022-07-25T11:05:47.891Z,8.13
2022-07-25T11:08:22.933Z,9.73
2022-07-25T11:10:53.595Z,8.27
2022-07-25T11:13:21.037Z,7.63
2022-07-25T11:15:50.854Z,8.90
2022-07-25T11:18:18.496Z,9.37
2022-07-25T11:20:45.564Z,8.73
2022-07-25T11:23:21.269Z,8.47
2022-07-25T11:25:48.159Z,8.30
2022-07-25T11:28:15.093Z,7.67
2022-07-25T11:30:42.065Z,7.70
2022-07-25T11:33:09.177Z,7.70
2022-07-25T11:35:36.230Z,8.07
2022-07-25T11:38:04.072Z,9.03
2022-07-25T11:40:33.656Z,7.30
2022-07-25T11:43:01.605Z,7.43
2022-07-25T11:45:34.181Z,9.10
2022-07-25T11:48:08.358Z,6.23
2022-07-25T11:50:43.909Z,6.50
2022-07-25T11:53:16.331Z,6.60
2022-07-25T11:55:44.113Z,6.40
2022-07-25T11:58:13.939Z,7.10
2022-07-25T12:00:48.652Z,6.87
2022-07-25T12:03:21.156Z,7.00
2022-07-25T12:05:49.903Z,7.17
2022-07-25T12:08:22.249Z,7.33
2022-07-25T12:10:55.466Z,7.17
2022-07-25T12:13:29.624Z,7.00
2022-07-25T12:15:59.696Z,6.77
2022-07-25T12:18:28.378Z,6.53
2022-07-25T12:20:55.464Z,7.27
2022-07-25T12:23:22.535Z,7.90
2022-07-25T12:25:50.465Z,6.53
2022-07-25T12:28:17.445Z,6.63
2022-07-25T12:30:46.425Z,6.87
2022-07-25T12:33:14.810Z,7.60
2022-07-25T12:35:44.335Z,7.07
2022-07-25T12:38:11.531Z,6.30
2022-07-25T12:40:39.019Z,6.83
2022-07-25T12:43:06.757Z,7.60
2022-07-25T12:45:34.115Z,7.27
2022-07-25T12:48:01.090Z,7.50
2022-07-25T12:50:28.048Z,7.27
2022-07-25T12:52:55.044Z,8.50
2022-07-25T12:55:22.575Z,9.27
2022-07-25T12:57:49.974Z,7.80
2022-07-25T13:00:21.927Z,7.93
2022-07-25T13:02:53.138Z,8.07
2022-07-25T13:05:20.967Z,7.80
2022-07-25T13:07:49.459Z,7.20
2022-07-25T13:10:19.062Z,8.33
2022-07-25T13:12:47.266Z,8.00
2022-07-25T13:15:14.465Z,8.33
2022-07-25T13:17:41.868Z,7.80
2022-07-25T13:20:10.583Z,7.47
2022-07-25T13:22:37.945Z,7.37
2022-07-25T13:25:05.710Z,7.57
2022-07-25T13:27:32.801Z,8.13
2022-07-25T13:29:59.763Z,7.47
2022-07-25T13:32:28.297Z,7.80
2022-07-25T13:34:55.579Z,7.90
2022-07-25T13:37:22.875Z,8.30
2022-07-25T13:39:49.839Z,7.63
2022-07-25T13:42:16.996Z,7.90
2022-07-25T13:44:43.939Z,7.90
2022-07-25T13:47:11.272Z,7.20
2022-07-25T13:49:38.811Z,7.43
2022-07-25T13:52:06.577Z,8.30
2022-07-25T13:54:33.648Z,9.77
2022-07-25T13:57:03.344Z,7.53
2022-07-25T13:59:31.171Z,7.10
2022-07-25T14:01:58.232Z,10.17
2022-07-25T14:04:25.136Z,8.53
2022-07-25T14:06:52.344Z,7.60
2022-07-25T14:09:21.888Z,6.33
2022-07-25T14:11:48.991Z,6.87
2022-07-25T14:14:16.205Z,6.10
2022-07-25T14:16:43.434Z,5.73
2022-07-25T14:19:10.609Z,5.93
2022-07-25T14:21:37.893Z,6.23
2022-07-25T14:24:05.456Z,5.20
2022-07-25T14:26:35.225Z,6.30
2022-07-25T14:29:05.804Z,4.50
2022-07-25T14:31:33.081Z,5.30
2022-07-25T14:34:00.039Z,5.33
2022-07-25T14:36:27.750Z,4.60
2022-07-25T14:38:54.823Z,4.23
2022-07-25T14:41:22.530Z,5.30
2022-07-25T14:43:52.100Z,4.40
2022-07-25T14:46:19.642Z,5.07
2022-07-25T14:48:46.673Z,4.80
2022-07-25T14:51:13.785Z,10.00
2022-07-25T14:53:40.710Z,4.97
2022-07-25T14:56:07.898Z,4.63
2022-07-25T14:58:35.510Z,4.60
2022-07-25T15:01:02.650Z,4.60
2022-07-25T15:03:29.678Z,4.47
2022-07-25T15:05:57.580Z,4.83
2022-07-25T15:08:25.047Z,4.17
2022-07-25T15:10:51.998Z,4.70
2022-07-25T15:13:34.690Z,4.80
2022-07-25T15:16:04.933Z,4.47
2022-07-25T15:18:32.199Z,4.90
2022-07-25T15:20:59.263Z,4.87
2022-07-25T15:23:29.686Z,5.73
2022-07-25T15:26:02.446Z,4.97
2022-07-25T15:28:33.960Z,5.30
2022-07-25T15:31:01.413Z,4.90
2022-07-25T15:33:28.552Z,9.53
2022-07-25T15:35:55.764Z,5.43
2022-07-25T15:38:23.525Z,5.37
2022-07-25T15:40:51.261Z,5.57
2022-07-25T15:43:18.414Z,5.17
2022-07-25T15:45:47.278Z,6.40
2022-07-25T15:48:17.269Z,6.37
2022-07-25T15:50:49.441Z,5.40
2022-07-25T15:53:16.991Z,5.10
2022-07-25T15:55:44.568Z,6.40
2022-07-25T15:58:12.303Z,7.70
2022-07-25T16:00:41.543Z,6.47
2022-07-25T16:03:09.904Z,4.83
2022-07-25T16:05:39.495Z,5.93
2022-07-25T16:08:09.699Z,7.20
2022-07-25T16:10:37.801Z,6.17
2022-07-25T16:13:05.598Z,5.87
2022-07-25T16:15:32.656Z,5.80
2022-07-25T16:18:02.639Z,5.97
2022-07-25T16:20:31.981Z,6.57
2022-07-25T16:23:00.677Z,6.70
2022-07-25T16:25:30.217Z,6.07
2022-07-25T16:27:58.785Z,6.50
2022-07-25T16:30:27.946Z,6.77
2022-07-25T16:32:55.048Z,6.97
2022-07-25T16:35:22.363Z,6.97
2022-07-25T16:37:49.379Z,7.03
2022-07-25T16:40:16.884Z,7.87
2022-07-25T16:42:43.959Z,7.07
2022-07-25T16:45:11.500Z,7.27
2022-07-25T16:47:40.813Z,7.30
2022-07-25T16:50:08.444Z,7.07
2022-07-25T16:52:35.685Z,7.30
2022-07-25T16:55:02.881Z,7.87
2022-07-25T16:57:31.670Z,6.77
2022-07-25T17:00:00.626Z,7.27
2022-07-25T17:02:29.712Z,8.27
2022-07-25T17:04:58.450Z,8.60
2022-07-25T17:07:26.491Z,6.80
2022-07-25T17:09:53.772Z,8.73
2022-07-25T17:12:21.249Z,6.90
2022-07-25T17:14:48.588Z,6.83
2022-07-25T17:17:15.671Z,6.77
2022-07-25T17:19:42.864Z,8.23
2022-07-25T17:22:10.689Z,6.23
2022-07-25T17:24:39.541Z,7.13
2022-07-25T17:27:08.925Z,6.87
2022-07-25T17:29:37.277Z,9.97
2022-07-25T17:32:06.796Z,7.47
2022-07-25T17:34:34.230Z,6.87
2022-07-25T17:37:04.058Z,7.20
2022-07-25T17:39:33.860Z,6.20
2022-07-25T17:42:01.944Z,8.53
2022-07-25T17:44:28.897Z,6.83
2022-07-25T17:46:56.117Z,6.63
2022-07-25T17:49:23.153Z,7.33
2022-07-25T17:51:50.213Z,6.50
2022-07-25T17:54:17.695Z,7.10
2022-07-25T17:56:45.426Z,8.00
2022-07-25T17:59:13.553Z,7.53
2022-07-25T18:01:40.882Z,15.40
2022-07-25T18:04:08.843Z,7.23
2022-07-25T18:06:36.534Z,6.37
2022-07-25T18:09:04.478Z,6.73
2022-07-25T18:11:31.441Z,7.07
2022-07-25T18:13:59.434Z,6.77
2022-07-25T18:16:27.102Z,6.27
2022-07-25T18:18:54.210Z,7.50
2022-07-25T18:21:21.129Z,7.27
2022-07-25T18:23:48.125Z,7.10
2022-07-25T18:26:15.402Z,7.63
2022-07-25T18:28:42.487Z,7.00
2022-07-25T18:31:10.256Z,7.13
2022-07-25T18:33:37.592Z,7.70
2022-07-25T18:36:07.759Z,8.70
2022-07-25T18:38:36.010Z,8.07
2022-07-25T18:41:27.655Z,7.00
2022-07-25T18:43:52.685Z,9.33
2022-07-25T18:46:20.345Z,7.77
2022-07-25T18:48:47.840Z,8.00
2022-07-25T18:51:15.040Z,7.60
2022-07-25T18:53:47.367Z,7.43
2022-07-25T18:56:16.737Z,7.83
2022-07-25T18:58:45.205Z,7.87
2022-07-25T19:01:12.769Z,7.33
2022-07-25T19:03:40.661Z,8.40
2022-07-25T19:06:10.145Z,8.43
2022-07-25T19:08:37.831Z,8.50
2022-07-25T19:11:06.038Z,8.83
2022-07-25T19:13:51.110Z,10.10
2022-07-25T19:16:19.890Z,12.00
2022-07-25T19:18:47.856Z,9.60
2022-07-25T19:21:15.303Z,9.23
2022-07-25T19:23:46.951Z,10.33
2022-07-25T19:26:17.883Z,12.70
2022-07-25T19:28:48.400Z,9.37
2022-07-25T19:31:16.235Z,10.73
2022-07-25T19:33:45.464Z,9.73
2022-07-25T19:36:14.078Z,8.97
2022-07-25T19:38:41.049Z,15.13
2022-07-25T19:41:08.960Z,12.50
2022-07-25T19:43:35.884Z,16.37
2022-07-25T19:46:02.873Z,12.30
2022-07-25T19:48:29.970Z,9.90
2022-07-25T19:50:57.092Z,9.77
2022-07-25T19:53:28.198Z,11.60
2022-07-25T19:55:59.168Z,22.40
2022-07-25T19:58:26.325Z,15.57
2022-07-25T20:00:53.399Z,13.10
2022-07-25T20:03:23.447Z,14.33
2022-07-25T20:05:51.022Z,16.90
2022-07-25T20:08:18.723Z,13.53
2022-07-25T20:10:45.778Z,15.30
2022-07-25T20:13:12.902Z,12.20
2022-07-25T20:15:39.821Z,14.00
2022-07-25T20:18:06.729Z,12.60
2022-07-25T20:20:33.751Z,12.00
2022-07-25T20:23:00.750Z,16.73
2022-07-25T20:25:27.863Z,12.77
2022-07-25T20:27:54.888Z,16.07
2022-07-25T20:30:21.997Z,14.87
2022-07-25T20:32:49.209Z,14.97
2022-07-25T20:35:16.117Z,16.60
2022-07-25T20:37:43.029Z,14.80
2022-07-25T20:40:11.888Z,17.43
2022-07-25T20:42:38.965Z,15.10
2022-07-25T20:45:07.785Z,14.43
2022-07-25T20:47:34.977Z,14.90
2022-07-25T20:50:02.394Z,14.97
2022-07-25T20:52:30.178Z,14.63
2022-07-25T20:54:57.210Z,15.60
2022-07-25T20:57:24.270Z,16.60
2022-07-25T20:59:51.241Z,20.00
2022-07-25T21:02:18.369Z,15.80
2022-07-25T21:04:48.210Z,15.80
2022-07-25T21:07:17.525Z,16.50
2022-07-25T21:09:45.354Z,19.20
2022-07-25T21:12:12.376Z,15.23
2022-07-25T21:14:39.429Z,13.33
2022-07-25T21:17:06.571Z,12.30
2022-07-25T21:19:33.779Z,12.77
2022-07-25T21:22:02.753Z,12.70
2022-07-25T21:24:31.357Z,11.00
2022-07-25T21:26:58.756Z,11.67
2022-07-25T21:29:25.653Z,11.90
2022-07-25T21:31:52.644Z,8.93
2022-07-25T21:34:21.434Z,8.53
2022-07-25T21:36:48.406Z,8.70
2022-07-25T21:39:16.143Z,8.90
2022-07-25T21:41:44.718Z,7.93
2022-07-25T21:44:13.639Z,10.00
2022-07-25T21:46:40.530Z,6.93
2022-07-25T21:49:41.398Z,7.50
2022-07-25T21:52:13.863Z,6.50
2022-07-25T21:54:43.186Z,8.43
2022-07-25T21:57:13.388Z,12.63
2022-07-25T21:59:45.360Z,8.73
2022-07-25T22:02:13.030Z,8.90
2022-07-25T22:04:40.386Z,6.70
2022-07-25T22:07:07.317Z,6.60
2022-07-25T22:09:34.383Z,5.90
2022-07-25T22:12:01.626Z,7.70
2022-07-25T22:14:28.678Z,5.60
2022-07-25T22:16:55.739Z,5.70
2022-07-25T22:19:23.419Z,7.07
2022-07-25T22:21:51.358Z,6.40
2022-07-25T22:24:18.393Z,7.10
2022-07-25T22:26:45.539Z,6.40
2022-07-25T22:29:12.715Z,5.10
2022-07-25T22:31:40.005Z,6.50
2022-07-25T22:34:08.639Z,8.97
2022-07-25T22:36:35.661Z,6.20
2022-07-25T22:39:02.655Z,6.30
2022-07-25T22:41:29.674Z,7.27
2022-07-25T22:43:59.574Z,7.13
2022-07-25T22:46:31.118Z,11.80
2022-07-25T22:48:59.392Z,8.90
2022-07-25T22:51:27.796Z,7.07
2022-07-25T22:53:59.291Z,7.80
2022-07-25T22:56:27.800Z,7.50
2022-07-25T22:58:55.542Z,9.03
2022-07-25T23:01:23.488Z,8.37
2022-07-25T23:03:51.202Z,9.27
2022-07-25T23:06:20.744Z,8.37
2022-07-25T23:08:49.162Z,9.37
2022-07-25T23:11:16.924Z,9.23
2022-07-25T23:13:43.939Z,8.90
2022-07-25T23:16:11.229Z,6.57
2022-07-25T23:18:39.540Z,7.37
2022-07-25T23:21:06.995Z,8.93
2022-07-25T23:23:34.351Z,7.60
2022-07-25T23:26:02.775Z,6.30
2022-07-25T23:28:29.704Z,8.77
2022-07-25T23:30:56.630Z,8.27
2022-07-25T23:33:25.175Z,10.50
2022-07-25T23:35:54.348Z,5.73
2022-07-25T23:38:22.476Z,8.13
2022-07-25T23:40:50.338Z,6.30
2022-07-25T23:43:26.774Z,5.80
2022-07-25T23:46:05.098Z,5.93
2022-07-25T23:48:33.869Z,9.03
2022-07-25T23:51:01.040Z,6.40
2022-07-25T23:53:28.333Z,5.97
2022-07-25T23:55:55.277Z,6.17
2022-07-25T23:58:22.303Z,7.97
